sensor_id;sensor_type;location;lat;lon;timestamp;P1;durP1;ratioP1;P2;durP2;ratioP2
10902;SDS011;5504;47.312;11.060;2023-03-31T00:02:18;14.90;;;13.27;;
10902;SDS011;5504;47.312;11.060;2023-03-31T00:04:46;16.10;;;12.80;;
10902;SDS011;5504;47.312;11.060;2023-03-31T00:07:16;15.97;;;12.30;;
10902;SDS011;5504;47.312;11.060;2023-03-31T00:09:46;13.43;;;12.03;;
10902;SDS011;5504;47.312;11.060;2023-03-31T00:12:13;13.03;;;11.63;;
10902;SDS011;5504;47.312;11.060;2023-03-31T00:14:40;11.97;;;10.73;;
10902;SDS011;5504;47.312;11.060;2023-03-31T00:17:06;12.47;;;11.17;;
10902;SDS011;5504;47.312;11.060;2023-03-31T00:19:33;12.63;;;10.70;;
10902;SDS011;5504;47.312;11.060;2023-03-31T00:21:59;11.97;;;10.00;;
10902;SDS011;5504;47.312;11.060;2023-03-31T00:24:29;10.20;;;8.70;;
10902;SDS011;5504;47.312;11.060;2023-03-31T00:26:58;11.30;;;9.50;;
10902;SDS011;5504;47.312;11.060;2023-03-31T00:29:25;10.70;;;9.60;;
10902;SDS011;5504;47.312;11.060;2023-03-31T00:31:51;11.80;;;10.17;;
10902;SDS011;5504;47.312;11.060;2023-03-31T00:34:16;12.00;;;9.67;;
10902;SDS011;5504;47.312;11.060;2023-03-31T00:36:42;10.60;;;9.50;;
10902;SDS011;5504;47.312;11.060;2023-03-31T00:39:15;10.50;;;9.50;;
10902;SDS011;5504;47.312;11.060;2023-03-31T00:41:42;9.93;;;8.87;;
10902;SDS011;5504;47.312;11.060;2023-03-31T00:49:49;11.30;;;9.83;;
10902;SDS011;5504;47.312;11.060;2023-03-31T00:52:20;11.00;;;9.90;;
10902;SDS011;5504;47.312;11.060;2023-03-31T00:54:59;11.47;;;10.07;;
10902;SDS011;5504;47.312;11.060;2023-03-31T00:57:29;10.57;;;9.43;;
10902;SDS011;5504;47.312;11.060;2023-03-31T00:59:58;10.67;;;9.57;;
10902;SDS011;5504;47.312;11.060;2023-03-31T01:02:27;11.87;;;10.53;;
10902;SDS011;5504;47.312;11.060;2023-03-31T01:04:57;10.87;;;9.33;;
10902;SDS011;5504;47.312;11.060;2023-03-31T01:07:34;10.53;;;9.57;;
10902;SDS011;5504;47.312;11.060;2023-03-31T01:10:06;11.63;;;10.53;;
10902;SDS011;5504;47.312;11.060;2023-03-31T01:12:33;11.80;;;10.60;;
10902;SDS011;5504;47.312;11.060;2023-03-31T01:15:03;11.93;;;10.67;;
10902;SDS011;5504;47.312;11.060;2023-03-31T01:17:30;12.87;;;11.00;;
10902;SDS011;5504;47.312;11.060;2023-03-31T01:30:55;12.20;;;10.47;;
10902;SDS011;5504;47.312;11.060;2023-03-31T01:42:13;13.00;;;11.27;;
10902;SDS011;5504;47.312;11.060;2023-03-31T01:45:19;12.03;;;10.73;;
10902;SDS011;5504;47.312;11.060;2023-03-31T01:48:07;12.67;;;11.37;;
10902;SDS011;5504;47.312;11.060;2023-03-31T01:50:52;12.63;;;11.27;;
10902;SDS011;5504;47.312;11.060;2023-03-31T01:53:34;13.97;;;11.20;;
10902;SDS011;5504;47.312;11.060;2023-03-31T01:56:30;12.47;;;11.17;;
10902;SDS011;5504;47.312;11.060;2023-03-31T01:59:01;12.13;;;10.87;;
10902;SDS011;5504;47.312;11.060;2023-03-31T02:01:52;12.03;;;10.70;;
10902;SDS011;5504;47.312;11.060;2023-03-31T02:04:33;13.97;;;12.20;;
10902;SDS011;5504;47.312;11.060;2023-03-31T02:07:08;13.80;;;12.30;;
10902;SDS011;5504;47.312;11.060;2023-03-31T02:09:40;13.40;;;12.10;;
10902;SDS011;5504;47.312;11.060;2023-03-31T02:12:10;14.33;;;12.90;;
10902;SDS011;5504;47.312;11.060;2023-03-31T02:14:37;14.27;;;12.77;;
10902;SDS011;5504;47.312;11.060;2023-03-31T02:17:07;14.60;;;11.47;;
10902;SDS011;5504;47.312;11.060;2023-03-31T02:19:39;13.87;;;12.07;;
10902;SDS011;5504;47.312;11.060;2023-03-31T02:22:08;14.00;;;12.60;;
10902;SDS011;5504;47.312;11.060;2023-03-31T02:24:36;12.80;;;11.47;;
10902;SDS011;5504;47.312;11.060;2023-03-31T02:29:51;16.17;;;13.53;;
10902;SDS011;5504;47.312;11.060;2023-03-31T02:32:22;16.00;;;13.00;;
10902;SDS011;5504;47.312;11.060;2023-03-31T02:34:53;13.57;;;12.13;;
10902;SDS011;5504;47.312;11.060;2023-03-31T02:37:20;13.60;;;12.20;;
10902;SDS011;5504;47.312;11.060;2023-03-31T02:39:46;13.83;;;12.43;;
10902;SDS011;5504;47.312;11.060;2023-03-31T02:42:15;13.10;;;11.70;;
10902;SDS011;5504;47.312;11.060;2023-03-31T02:44:41;14.40;;;11.67;;
10902;SDS011;5504;47.312;11.060;2023-03-31T02:47:08;11.93;;;10.73;;
10902;SDS011;5504;47.312;11.060;2023-03-31T02:49:37;14.00;;;11.40;;
10902;SDS011;5504;47.312;11.060;2023-03-31T03:09:13;14.10;;;12.03;;
10902;SDS011;5504;47.312;11.060;2023-03-31T03:11:59;14.83;;;13.23;;
10902;SDS011;5504;47.312;11.060;2023-03-31T03:14:49;13.67;;;12.27;;
10902;SDS011;5504;47.312;11.060;2023-03-31T03:17:31;15.10;;;13.30;;
10902;SDS011;5504;47.312;11.060;2023-03-31T03:20:04;13.23;;;11.93;;
10902;SDS011;5504;47.312;11.060;2023-03-31T03:22:35;14.30;;;12.80;;
10902;SDS011;5504;47.312;11.060;2023-03-31T03:25:02;14.43;;;12.93;;
10902;SDS011;5504;47.312;11.060;2023-03-31T03:27:29;13.50;;;12.10;;
10902;SDS011;5504;47.312;11.060;2023-03-31T03:29:54;14.37;;;12.87;;
10902;SDS011;5504;47.312;11.060;2023-03-31T03:32:20;14.37;;;12.77;;
10902;SDS011;5504;47.312;11.060;2023-03-31T03:34:46;14.63;;;13.07;;
10902;SDS011;5504;47.312;11.060;2023-03-31T03:37:12;15.23;;;13.07;;
10902;SDS011;5504;47.312;11.060;2023-03-31T03:39:37;13.93;;;12.50;;
10902;SDS011;5504;47.312;11.060;2023-03-31T03:42:03;15.03;;;13.20;;
10902;SDS011;5504;47.312;11.060;2023-03-31T03:44:29;15.20;;;13.43;;
10902;SDS011;5504;47.312;11.060;2023-03-31T03:46:55;16.90;;;14.37;;
10902;SDS011;5504;47.312;11.060;2023-03-31T03:49:20;14.60;;;13.10;;
10902;SDS011;5504;47.312;11.060;2023-03-31T03:51:47;14.53;;;13.03;;
10902;SDS011;5504;47.312;11.060;2023-03-31T03:54:12;15.13;;;12.90;;
10902;SDS011;5504;47.312;11.060;2023-03-31T03:56:38;14.90;;;13.27;;
10902;SDS011;5504;47.312;11.060;2023-03-31T03:59:04;14.80;;;12.90;;
10902;SDS011;5504;47.312;11.060;2023-03-31T04:01:30;17.57;;;14.37;;
10902;SDS011;5504;47.312;11.060;2023-03-31T04:03:56;15.27;;;13.67;;
10902;SDS011;5504;47.312;11.060;2023-03-31T04:06:21;16.70;;;14.33;;
10902;SDS011;5504;47.312;11.060;2023-03-31T04:08:47;16.53;;;14.50;;
10902;SDS011;5504;47.312;11.060;2023-03-31T04:11:14;17.60;;;14.63;;
10902;SDS011;5504;47.312;11.060;2023-03-31T04:13:41;17.00;;;15.00;;
10902;SDS011;5504;47.312;11.060;2023-03-31T04:16:08;17.13;;;14.60;;
10902;SDS011;5504;47.312;11.060;2023-03-31T04:18:34;16.27;;;14.57;;
10902;SDS011;5504;47.312;11.060;2023-03-31T04:21:01;18.00;;;15.40;;
10902;SDS011;5504;47.312;11.060;2023-03-31T04:26:07;18.70;;;16.60;;
10902;SDS011;5504;47.312;11.060;2023-03-31T04:28:34;16.93;;;15.10;;
10902;SDS011;5504;47.312;11.060;2023-03-31T04:31:01;18.87;;;16.03;;
10902;SDS011;5504;47.312;11.060;2023-03-31T04:33:30;18.43;;;16.03;;
10902;SDS011;5504;47.312;11.060;2023-03-31T04:36:02;18.90;;;15.40;;
10902;SDS011;5504;47.312;11.060;2023-03-31T04:38:31;18.47;;;15.57;;
10902;SDS011;5504;47.312;11.060;2023-03-31T04:40:57;18.27;;;15.30;;
10902;SDS011;5504;47.312;11.060;2023-03-31T04:43:23;18.07;;;16.17;;
10902;SDS011;5504;47.312;11.060;2023-03-31T04:45:49;20.63;;;16.60;;
10902;SDS011;5504;47.312;11.060;2023-03-31T04:48:15;20.57;;;16.80;;
10902;SDS011;5504;47.312;11.060;2023-03-31T04:50:41;17.40;;;15.50;;
10902;SDS011;5504;47.312;11.060;2023-03-31T04:53:07;17.77;;;15.87;;
10902;SDS011;5504;47.312;11.060;2023-03-31T04:55:33;18.57;;;15.70;;
10902;SDS011;5504;47.312;11.060;2023-03-31T04:57:59;15.80;;;14.00;;
10902;SDS011;5504;47.312;11.060;2023-03-31T05:00:25;22.00;;;15.67;;
10902;SDS011;5504;47.312;11.060;2023-03-31T05:02:51;20.87;;;15.87;;
10902;SDS011;5504;47.312;11.060;2023-03-31T05:05:17;18.27;;;15.80;;
10902;SDS011;5504;47.312;11.060;2023-03-31T05:07:42;21.17;;;16.93;;
10902;SDS011;5504;47.312;11.060;2023-03-31T05:10:08;17.93;;;15.70;;
10902;SDS011;5504;47.312;11.060;2023-03-31T05:12:35;18.90;;;15.10;;
10902;SDS011;5504;47.312;11.060;2023-03-31T05:15:02;22.33;;;18.40;;
10902;SDS011;5504;47.312;11.060;2023-03-31T05:17:32;18.93;;;16.37;;
10902;SDS011;5504;47.312;11.060;2023-03-31T05:19:59;18.73;;;16.23;;
10902;SDS011;5504;47.312;11.060;2023-03-31T05:22:26;17.83;;;14.97;;
10902;SDS011;5504;47.312;11.060;2023-03-31T05:24:51;21.87;;;17.80;;
10902;SDS011;5504;47.312;11.060;2023-03-31T05:27:17;26.47;;;22.60;;
10902;SDS011;5504;47.312;11.060;2023-03-31T05:29:45;21.77;;;18.87;;
10902;SDS011;5504;47.312;11.060;2023-03-31T05:32:11;22.37;;;17.47;;
10902;SDS011;5504;47.312;11.060;2023-03-31T05:34:36;19.10;;;16.93;;
10902;SDS011;5504;47.312;11.060;2023-03-31T05:37:02;27.03;;;23.23;;
10902;SDS011;5504;47.312;11.060;2023-03-31T05:39:28;17.90;;;15.77;;
10902;SDS011;5504;47.312;11.060;2023-03-31T05:41:57;17.37;;;15.03;;
10902;SDS011;5504;47.312;11.060;2023-03-31T05:44:23;15.70;;;13.50;;
10902;SDS011;5504;47.312;11.060;2023-03-31T05:46:51;17.67;;;15.33;;
10902;SDS011;5504;47.312;11.060;2023-03-31T05:49:17;17.80;;;15.43;;
10902;SDS011;5504;47.312;11.060;2023-03-31T05:51:43;18.63;;;15.93;;
10902;SDS011;5504;47.312;11.060;2023-03-31T05:54:09;16.90;;;14.90;;
10902;SDS011;5504;47.312;11.060;2023-03-31T05:56:34;18.57;;;15.87;;
10902;SDS011;5504;47.312;11.060;2023-03-31T05:59:00;20.70;;;17.10;;
10902;SDS011;5504;47.312;11.060;2023-03-31T06:01:26;20.50;;;16.27;;
10902;SDS011;5504;47.312;11.060;2023-03-31T06:03:54;27.40;;;23.63;;
10902;SDS011;5504;47.312;11.060;2023-03-31T06:06:20;25.67;;;21.70;;
10902;SDS011;5504;47.312;11.060;2023-03-31T06:08:46;23.47;;;17.73;;
10902;SDS011;5504;47.312;11.060;2023-03-31T06:11:14;19.73;;;16.83;;
10902;SDS011;5504;47.312;11.060;2023-03-31T06:13:45;16.90;;;15.10;;
10902;SDS011;5504;47.312;11.060;2023-03-31T06:16:13;20.60;;;16.53;;
10902;SDS011;5504;47.312;11.060;2023-03-31T06:18:40;21.90;;;18.47;;
10902;SDS011;5504;47.312;11.060;2023-03-31T06:21:06;18.67;;;16.67;;
10902;SDS011;5504;47.312;11.060;2023-03-31T06:23:32;17.77;;;15.23;;
10902;SDS011;5504;47.312;11.060;2023-03-31T06:26:03;17.23;;;14.63;;
10902;SDS011;5504;47.312;11.060;2023-03-31T06:28:32;23.23;;;19.03;;
10902;SDS011;5504;47.312;11.060;2023-03-31T06:31:20;16.03;;;13.23;;
10902;SDS011;5504;47.312;11.060;2023-03-31T06:33:46;15.57;;;12.07;;
10902;SDS011;5504;47.312;11.060;2023-03-31T06:36:13;12.33;;;10.40;;
10902;SDS011;5504;47.312;11.060;2023-03-31T06:38:40;12.60;;;10.27;;
10902;SDS011;5504;47.312;11.060;2023-03-31T06:41:07;13.13;;;10.97;;
10902;SDS011;5504;47.312;11.060;2023-03-31T06:43:35;11.87;;;10.67;;
10902;SDS011;5504;47.312;11.060;2023-03-31T06:46:01;13.00;;;11.00;;
10902;SDS011;5504;47.312;11.060;2023-03-31T06:48:27;13.47;;;11.63;;
10902;SDS011;5504;47.312;11.060;2023-03-31T06:50:53;17.33;;;12.63;;
10902;SDS011;5504;47.312;11.060;2023-03-31T06:53:20;15.13;;;12.83;;
10902;SDS011;5504;47.312;11.060;2023-03-31T06:55:46;14.33;;;12.53;;
10902;SDS011;5504;47.312;11.060;2023-03-31T06:58:12;14.83;;;13.07;;
10902;SDS011;5504;47.312;11.060;2023-03-31T07:00:38;15.53;;;13.13;;
10902;SDS011;5504;47.312;11.060;2023-03-31T07:03:04;16.23;;;13.57;;
10902;SDS011;5504;47.312;11.060;2023-03-31T07:05:32;16.10;;;13.50;;
10902;SDS011;5504;47.312;11.060;2023-03-31T07:07:58;17.17;;;14.93;;
10902;SDS011;5504;47.312;11.060;2023-03-31T07:10:25;16.73;;;13.73;;
10902;SDS011;5504;47.312;11.060;2023-03-31T07:12:53;15.60;;;12.27;;
10902;SDS011;5504;47.312;11.060;2023-03-31T07:15:19;15.53;;;11.53;;
10902;SDS011;5504;47.312;11.060;2023-03-31T07:17:45;14.37;;;9.60;;
10902;SDS011;5504;47.312;11.060;2023-03-31T07:20:15;10.67;;;9.60;;
10902;SDS011;5504;47.312;11.060;2023-03-31T07:22:42;11.13;;;9.27;;
10902;SDS011;5504;47.312;11.060;2023-03-31T07:25:09;12.57;;;10.17;;
10902;SDS011;5504;47.312;11.060;2023-03-31T07:27:36;11.33;;;9.77;;
10902;SDS011;5504;47.312;11.060;2023-03-31T07:30:03;9.97;;;9.03;;
10902;SDS011;5504;47.312;11.060;2023-03-31T07:32:32;11.00;;;9.20;;
10902;SDS011;5504;47.312;11.060;2023-03-31T07:34:59;12.17;;;9.77;;
10902;SDS011;5504;47.312;11.060;2023-03-31T07:37:25;12.33;;;10.17;;
10902;SDS011;5504;47.312;11.060;2023-03-31T07:39:51;10.00;;;9.00;;
10902;SDS011;5504;47.312;11.060;2023-03-31T07:42:16;11.00;;;9.20;;
10902;SDS011;5504;47.312;11.060;2023-03-31T07:44:42;11.73;;;9.67;;
10902;SDS011;5504;47.312;11.060;2023-03-31T07:47:08;12.20;;;10.30;;
10902;SDS011;5504;47.312;11.060;2023-03-31T07:49:33;11.27;;;9.37;;
10902;SDS011;5504;47.312;11.060;2023-03-31T07:52:00;10.97;;;9.83;;
10902;SDS011;5504;47.312;11.060;2023-03-31T07:54:26;9.80;;;8.77;;
10902;SDS011;5504;47.312;11.060;2023-03-31T07:56:52;10.17;;;8.83;;
10902;SDS011;5504;47.312;11.060;2023-03-31T07:59:18;11.60;;;10.40;;
10902;SDS011;5504;47.312;11.060;2023-03-31T08:01:44;11.27;;;9.93;;
10902;SDS011;5504;47.312;11.060;2023-03-31T08:04:10;11.67;;;9.37;;
10902;SDS011;5504;47.312;11.060;2023-03-31T08:06:36;11.00;;;8.30;;
10902;SDS011;5504;47.312;11.060;2023-03-31T08:09:03;8.93;;;8.03;;
10902;SDS011;5504;47.312;11.060;2023-03-31T08:11:31;8.13;;;7.17;;
10902;SDS011;5504;47.312;11.060;2023-03-31T08:13:57;7.77;;;6.97;;
10902;SDS011;5504;47.312;11.060;2023-03-31T08:16:22;7.80;;;6.93;;
10902;SDS011;5504;47.312;11.060;2023-03-31T08:18:48;7.07;;;6.30;;
10902;SDS011;5504;47.312;11.060;2023-03-31T08:21:14;6.30;;;5.50;;
10902;SDS011;5504;47.312;11.060;2023-03-31T08:23:40;6.47;;;5.73;;
10902;SDS011;5504;47.312;11.060;2023-03-31T08:26:07;6.47;;;5.87;;
10902;SDS011;5504;47.312;11.060;2023-03-31T08:28:37;6.80;;;5.53;;
10902;SDS011;5504;47.312;11.060;2023-03-31T08:31:06;6.57;;;5.67;;
10902;SDS011;5504;47.312;11.060;2023-03-31T08:33:33;5.67;;;5.17;;
10902;SDS011;5504;47.312;11.060;2023-03-31T08:36:03;5.50;;;4.97;;
10902;SDS011;5504;47.312;11.060;2023-03-31T08:38:30;7.37;;;6.00;;
10902;SDS011;5504;47.312;11.060;2023-03-31T08:41:03;6.07;;;5.37;;
10902;SDS011;5504;47.312;11.060;2023-03-31T08:43:36;6.37;;;5.60;;
10902;SDS011;5504;47.312;11.060;2023-03-31T08:46:05;6.20;;;5.60;;
10902;SDS011;5504;47.312;11.060;2023-03-31T08:48:37;7.23;;;6.17;;
10902;SDS011;5504;47.312;11.060;2023-03-31T08:54:06;7.07;;;6.30;;
10902;SDS011;5504;47.312;11.060;2023-03-31T08:56:48;7.10;;;6.40;;
10902;SDS011;5504;47.312;11.060;2023-03-31T08:59:25;6.73;;;6.00;;
10902;SDS011;5504;47.312;11.060;2023-03-31T09:01:56;6.53;;;5.43;;
10902;SDS011;5504;47.312;11.060;2023-03-31T09:04:51;6.90;;;6.00;;
10902;SDS011;5504;47.312;11.060;2023-03-31T09:07:42;6.20;;;5.60;;
10902;SDS011;5504;47.312;11.060;2023-03-31T09:10:29;5.47;;;4.97;;
10902;SDS011;5504;47.312;11.060;2023-03-31T09:16:26;6.97;;;5.77;;
10902;SDS011;5504;47.312;11.060;2023-03-31T09:22:25;6.97;;;6.27;;
10902;SDS011;5504;47.312;11.060;2023-03-31T09:27:46;8.57;;;6.90;;
10902;SDS011;5504;47.312;11.060;2023-03-31T09:30:19;6.77;;;6.03;;
10902;SDS011;5504;47.312;11.060;2023-03-31T09:32:51;7.43;;;6.03;;
10902;SDS011;5504;47.312;11.060;2023-03-31T09:35:24;9.17;;;6.30;;
10902;SDS011;5504;47.312;11.060;2023-03-31T09:37:51;7.00;;;6.20;;
10902;SDS011;5504;47.312;11.060;2023-03-31T09:40:19;6.73;;;5.90;;
10902;SDS011;5504;47.312;11.060;2023-03-31T09:42:50;8.57;;;6.87;;
10902;SDS011;5504;47.312;11.060;2023-03-31T09:45:25;7.57;;;6.87;;
10902;SDS011;5504;47.312;11.060;2023-03-31T09:47:54;7.67;;;6.00;;
10902;SDS011;5504;47.312;11.060;2023-03-31T09:50:23;7.10;;;6.20;;
10902;SDS011;5504;47.312;11.060;2023-03-31T09:52:51;6.77;;;5.20;;
10902;SDS011;5504;47.312;11.060;2023-03-31T09:55:21;6.70;;;5.70;;
10902;SDS011;5504;47.312;11.060;2023-03-31T09:57:50;6.57;;;5.97;;
10902;SDS011;5504;47.312;11.060;2023-03-31T10:00:18;7.83;;;5.90;;
10902;SDS011;5504;47.312;11.060;2023-03-31T10:02:52;6.17;;;5.57;;
10902;SDS011;5504;47.312;11.060;2023-03-31T10:13:15;9.57;;;7.63;;
10902;SDS011;5504;47.312;11.060;2023-03-31T10:15:44;8.53;;;7.60;;
10902;SDS011;5504;47.312;11.060;2023-03-31T10:18:13;8.20;;;7.30;;
10902;SDS011;5504;47.312;11.060;2023-03-31T10:20:47;8.70;;;7.27;;
10902;SDS011;5504;47.312;11.060;2023-03-31T10:23:22;8.47;;;6.83;;
10902;SDS011;5504;47.312;11.060;2023-03-31T10:25:53;6.77;;;6.07;;
10902;SDS011;5504;47.312;11.060;2023-03-31T10:28:20;6.73;;;6.03;;
10902;SDS011;5504;47.312;11.060;2023-03-31T10:30:55;7.47;;;6.43;;
10902;SDS011;5504;47.312;11.060;2023-03-31T10:33:29;6.93;;;5.97;;
10902;SDS011;5504;47.312;11.060;2023-03-31T10:35:59;7.00;;;5.93;;
10902;SDS011;5504;47.312;11.060;2023-03-31T10:38:52;7.63;;;5.93;;
10902;SDS011;5504;47.312;11.060;2023-03-31T10:41:26;7.57;;;6.13;;
10902;SDS011;5504;47.312;11.060;2023-03-31T10:43:57;6.97;;;6.27;;
10902;SDS011;5504;47.312;11.060;2023-03-31T10:46:45;7.30;;;6.23;;
10902;SDS011;5504;47.312;11.060;2023-03-31T10:49:36;6.13;;;5.53;;
10902;SDS011;5504;47.312;11.060;2023-03-31T10:52:02;5.03;;;3.80;;
10902;SDS011;5504;47.312;11.060;2023-03-31T10:54:27;5.60;;;3.50;;
10902;SDS011;5504;47.312;11.060;2023-03-31T10:57:00;4.67;;;4.00;;
10902;SDS011;5504;47.312;11.060;2023-03-31T10:59:48;3.57;;;3.10;;
10902;SDS011;5504;47.312;11.060;2023-03-31T11:19:04;6.77;;;5.13;;
10902;SDS011;5504;47.312;11.060;2023-03-31T11:43:03;8.03;;;7.23;;
10902;SDS011;5504;47.312;11.060;2023-03-31T11:45:34;9.73;;;8.83;;
10902;SDS011;5504;47.312;11.060;2023-03-31T11:48:08;7.73;;;6.93;;
10902;SDS011;5504;47.312;11.060;2023-03-31T11:50:43;7.13;;;6.30;;
10902;SDS011;5504;47.312;11.060;2023-03-31T11:53:18;7.57;;;6.17;;
10902;SDS011;5504;47.312;11.060;2023-03-31T11:55:49;7.23;;;5.83;;
10902;SDS011;5504;47.312;11.060;2023-03-31T11:58:22;6.27;;;5.63;;
10902;SDS011;5504;47.312;11.060;2023-03-31T12:01:22;8.33;;;5.80;;
10902;SDS011;5504;47.312;11.060;2023-03-31T12:07:29;8.30;;;6.17;;
10902;SDS011;5504;47.312;11.060;2023-03-31T12:12:38;7.10;;;6.40;;
10902;SDS011;5504;47.312;11.060;2023-03-31T12:17:46;9.67;;;7.13;;
10902;SDS011;5504;47.312;11.060;2023-03-31T12:20:38;9.07;;;6.63;;
10902;SDS011;5504;47.312;11.060;2023-03-31T12:23:14;8.27;;;7.47;;
10902;SDS011;5504;47.312;11.060;2023-03-31T12:28:15;7.90;;;6.90;;
10902;SDS011;5504;47.312;11.060;2023-03-31T12:30:42;8.27;;;7.00;;
10902;SDS011;5504;47.312;11.060;2023-03-31T12:38:32;12.93;;;9.00;;
10902;SDS011;5504;47.312;11.060;2023-03-31T12:41:13;7.83;;;6.90;;
10902;SDS011;5504;47.312;11.060;2023-03-31T12:52:03;10.03;;;8.93;;
10902;SDS011;5504;47.312;11.060;2023-03-31T12:57:36;7.50;;;6.37;;
10902;SDS011;5504;47.312;11.060;2023-03-31T13:02:36;12.47;;;9.87;;
10902;SDS011;5504;47.312;11.060;2023-03-31T13:08:03;5.63;;;4.97;;
10902;SDS011;5504;47.312;11.060;2023-03-31T13:10:30;6.13;;;4.60;;
10902;SDS011;5504;47.312;11.060;2023-03-31T13:12:59;4.10;;;3.70;;
10902;SDS011;5504;47.312;11.060;2023-03-31T13:15:35;4.23;;;3.33;;
10902;SDS011;5504;47.312;11.060;2023-03-31T13:18:02;3.73;;;3.00;;
10902;SDS011;5504;47.312;11.060;2023-03-31T13:20:40;3.30;;;3.00;;
10902;SDS011;5504;47.312;11.060;2023-03-31T13:23:20;3.57;;;2.90;;
10902;SDS011;5504;47.312;11.060;2023-03-31T13:25:50;3.60;;;2.90;;
10902;SDS011;5504;47.312;11.060;2023-03-31T13:30:56;3.43;;;2.90;;
10902;SDS011;5504;47.312;11.060;2023-03-31T13:33:43;3.07;;;2.40;;
10902;SDS011;5504;47.312;11.060;2023-03-31T13:39:25;3.43;;;2.87;;
10902;SDS011;5504;47.312;11.060;2023-03-31T13:49:52;4.53;;;3.20;;
10902;SDS011;5504;47.312;11.060;2023-03-31T13:52:34;4.87;;;2.90;;
10902;SDS011;5504;47.312;11.060;2023-03-31T14:06:47;3.00;;;2.73;;
10902;SDS011;5504;47.312;11.060;2023-03-31T14:09:31;4.80;;;4.10;;
10902;SDS011;5504;47.312;11.060;2023-03-31T14:12:00;28.40;;;15.77;;
10902;SDS011;5504;47.312;11.060;2023-03-31T14:14:42;14.67;;;9.10;;
10902;SDS011;5504;47.312;11.060;2023-03-31T14:17:08;6.23;;;3.70;;
10902;SDS011;5504;47.312;11.060;2023-03-31T14:22:55;3.40;;;3.10;;
10902;SDS011;5504;47.312;11.060;2023-03-31T14:39:16;22.50;;;18.13;;
10902;SDS011;5504;47.312;11.060;2023-03-31T14:41:52;11.13;;;9.60;;
10902;SDS011;5504;47.312;11.060;2023-03-31T14:44:20;6.03;;;5.43;;
10902;SDS011;5504;47.312;11.060;2023-03-31T14:46:47;7.17;;;5.00;;
10902;SDS011;5504;47.312;11.060;2023-03-31T14:49:20;5.90;;;5.23;;
10902;SDS011;5504;47.312;11.060;2023-03-31T14:51:51;5.53;;;4.80;;
10902;SDS011;5504;47.312;11.060;2023-03-31T14:54:18;6.47;;;4.97;;
10902;SDS011;5504;47.312;11.060;2023-03-31T14:56:55;6.40;;;5.40;;
10902;SDS011;5504;47.312;11.060;2023-03-31T14:59:30;5.60;;;5.10;;
10902;SDS011;5504;47.312;11.060;2023-03-31T15:01:58;4.93;;;4.00;;
10902;SDS011;5504;47.312;11.060;2023-03-31T15:04:27;4.73;;;4.23;;
10902;SDS011;5504;47.312;11.060;2023-03-31T15:06:54;3.40;;;3.10;;
10902;SDS011;5504;47.312;11.060;2023-03-31T15:12:00;4.43;;;3.77;;
10902;SDS011;5504;47.312;11.060;2023-03-31T15:14:32;3.90;;;3.17;;
10902;SDS011;5504;47.312;11.060;2023-03-31T15:17:01;5.47;;;4.20;;
10902;SDS011;5504;47.312;11.060;2023-03-31T15:19:32;4.43;;;4.03;;
10902;SDS011;5504;47.312;11.060;2023-03-31T15:24:42;4.40;;;4.00;;
10902;SDS011;5504;47.312;11.060;2023-03-31T15:29:43;4.60;;;4.20;;
10902;SDS011;5504;47.312;11.060;2023-03-31T15:32:24;4.43;;;3.43;;
10902;SDS011;5504;47.312;11.060;2023-03-31T15:34:51;4.10;;;3.70;;
10902;SDS011;5504;47.312;11.060;2023-03-31T15:37:22;4.43;;;4.03;;
10902;SDS011;5504;47.312;11.060;2023-03-31T15:39:56;4.23;;;3.83;;
10902;SDS011;5504;47.312;11.060;2023-03-31T15:42:24;4.47;;;3.80;;
10902;SDS011;5504;47.312;11.060;2023-03-31T15:44:54;4.80;;;3.80;;
10902;SDS011;5504;47.312;11.060;2023-03-31T15:47:33;4.53;;;3.77;;
10902;SDS011;5504;47.312;11.060;2023-03-31T15:52:36;3.83;;;3.50;;
10902;SDS011;5504;47.312;11.060;2023-03-31T15:57:47;5.37;;;4.23;;
10902;SDS011;5504;47.312;11.060;2023-03-31T16:03:15;5.77;;;5.07;;
10902;SDS011;5504;47.312;11.060;2023-03-31T16:08:20;7.13;;;4.63;;
10902;SDS011;5504;47.312;11.060;2023-03-31T16:10:55;9.07;;;8.17;;
10902;SDS011;5504;47.312;11.060;2023-03-31T16:13:27;4.10;;;3.70;;
10902;SDS011;5504;47.312;11.060;2023-03-31T16:15:55;4.10;;;3.70;;
10902;SDS011;5504;47.312;11.060;2023-03-31T16:18:24;4.20;;;3.80;;
10902;SDS011;5504;47.312;11.060;2023-03-31T16:20:55;5.37;;;4.03;;
10902;SDS011;5504;47.312;11.060;2023-03-31T16:23:26;5.63;;;4.27;;
10902;SDS011;5504;47.312;11.060;2023-03-31T16:25:55;3.10;;;2.80;;
10902;SDS011;5504;47.312;11.060;2023-03-31T16:28:34;3.00;;;2.80;;
10902;SDS011;5504;47.312;11.060;2023-03-31T16:31:01;5.10;;;4.20;;
10902;SDS011;5504;47.312;11.060;2023-03-31T16:33:29;4.03;;;3.63;;
10902;SDS011;5504;47.312;11.060;2023-03-31T16:35:56;3.40;;;2.60;;
10902;SDS011;5504;47.312;11.060;2023-03-31T16:38:26;3.07;;;2.77;;
10902;SDS011;5504;47.312;11.060;2023-03-31T16:40:53;2.87;;;2.67;;
10902;SDS011;5504;47.312;11.060;2023-03-31T16:43:22;2.50;;;2.30;;
10902;SDS011;5504;47.312;11.060;2023-03-31T16:45:53;2.70;;;2.50;;
10902;SDS011;5504;47.312;11.060;2023-03-31T16:48:21;2.90;;;2.33;;
10902;SDS011;5504;47.312;11.060;2023-03-31T16:50:49;3.57;;;2.80;;
10902;SDS011;5504;47.312;11.060;2023-03-31T16:53:18;2.50;;;2.30;;
10902;SDS011;5504;47.312;11.060;2023-03-31T16:55:48;3.80;;;2.37;;
10902;SDS011;5504;47.312;11.060;2023-03-31T16:58:14;3.30;;;2.47;;
10902;SDS011;5504;47.312;11.060;2023-03-31T17:00:40;3.07;;;2.40;;
10902;SDS011;5504;47.312;11.060;2023-03-31T17:03:07;2.27;;;2.07;;
10902;SDS011;5504;47.312;11.060;2023-03-31T17:06:07;5.33;;;2.67;;
10902;SDS011;5504;47.312;11.060;2023-03-31T17:08:29;3.33;;;2.33;;
10902;SDS011;5504;47.312;11.060;2023-03-31T17:10:59;2.47;;;2.27;;
10902;SDS011;5504;47.312;11.060;2023-03-31T17:13:31;2.00;;;1.90;;
10902;SDS011;5504;47.312;11.060;2023-03-31T17:15:57;1.93;;;1.80;;
10902;SDS011;5504;47.312;11.060;2023-03-31T17:18:23;2.63;;;2.10;;
10902;SDS011;5504;47.312;11.060;2023-03-31T17:20:49;2.50;;;2.30;;
10902;SDS011;5504;47.312;11.060;2023-03-31T17:23:17;2.73;;;2.10;;
10902;SDS011;5504;47.312;11.060;2023-03-31T17:25:47;2.40;;;2.20;;
10902;SDS011;5504;47.312;11.060;2023-03-31T17:28:13;2.40;;;2.20;;
10902;SDS011;5504;47.312;11.060;2023-03-31T17:30:39;2.63;;;2.30;;
10902;SDS011;5504;47.312;11.060;2023-03-31T17:33:08;2.50;;;2.30;;
10902;SDS011;5504;47.312;11.060;2023-03-31T17:35:35;3.90;;;3.17;;
10902;SDS011;5504;47.312;11.060;2023-03-31T17:38:01;4.23;;;3.83;;
10902;SDS011;5504;47.312;11.060;2023-03-31T17:40:28;2.37;;;2.17;;
10902;SDS011;5504;47.312;11.060;2023-03-31T17:42:57;3.37;;;3.07;;
10902;SDS011;5504;47.312;11.060;2023-03-31T17:45:23;2.87;;;2.50;;
10902;SDS011;5504;47.312;11.060;2023-03-31T17:47:49;3.30;;;2.17;;
10902;SDS011;5504;47.312;11.060;2023-03-31T17:50:15;3.03;;;1.83;;
10902;SDS011;5504;47.312;11.060;2023-03-31T17:52:41;2.47;;;2.27;;
10902;SDS011;5504;47.312;11.060;2023-03-31T17:55:07;3.23;;;2.60;;
10902;SDS011;5504;47.312;11.060;2023-03-31T17:57:33;3.60;;;3.30;;
10902;SDS011;5504;47.312;11.060;2023-03-31T18:00:01;4.17;;;3.03;;
10902;SDS011;5504;47.312;11.060;2023-03-31T18:02:28;2.73;;;2.40;;
10902;SDS011;5504;47.312;11.060;2023-03-31T18:04:54;2.97;;;2.40;;
10902;SDS011;5504;47.312;11.060;2023-03-31T18:07:19;2.87;;;2.40;;
10902;SDS011;5504;47.312;11.060;2023-03-31T18:09:47;3.10;;;2.60;;
10902;SDS011;5504;47.312;11.060;2023-03-31T18:12:13;3.70;;;2.23;;
10902;SDS011;5504;47.312;11.060;2023-03-31T18:14:38;3.13;;;2.13;;